Sct Santiago — V7NF7 — position and weather

sailwx.info

Track history (hours):
 
Tides and Currents Weather Stations Pressure Air Temp Water Temp Dewpoint Dewpoint Depression Visibility Wind Speed Wind Dir Waves Ship Positions

Sct Santiago

Last reported at 2015-Aug-28 23:33 UTC. Time now 2015-Aug-29 00:25 UTC.
Position S 35°04' E 138°09'.

Length 294 m; draft 9.7 m.

Type: Cargo ship. MMSI: 538002953.

Date/timePositionNaut miles runAvg speedWind from/ knotsBaromVisibWave heightAir tempDewpointWater temp
2015-Aug-28 23:33S 35°04' E 138°09'1212.4
2015-Aug-28 22:34S 34°53' E 138°17'9 0.4
2015-Aug-27 22:26S 35°02' E 138°15'27413.8
2015-Aug-27 02:33S 38°40' E 141°43'1615.5
2015-Aug-27 01:33S 38°44' E 142°02'1515.5
2015-Aug-27 00:33S 38°48' E 142°21'1615.6
2015-Aug-26 23:30S 38°52' E 142°42'1516.0
2015-Aug-26 22:32S 38°56' E 143°01'124 2.4
2015-Aug-24 19:33S 39°02' E 145°40'1616.4
2015-Aug-24 18:34S 39°10' E 145°57'1616.1
2015-Aug-24 17:34S 39°12' E 146°18'1716.8
2015-Aug-24 16:34S 39°07' E 146°39'1817.6
2015-Aug-24 15:34S 39°01' E 147°00'1717.2
2015-Aug-24 14:34S 38°56' E 147°21'6916.5
2015-Aug-24 10:24S 38°27' E 148°41'1517.6
2015-Aug-24 09:34S 38°19' E 148°57'2018.0
2015-Aug-24 08:27S 38°08' E 149°18'2117.6
2015-Aug-24 07:16S 37°56' E 149°40'1217.1
2015-Aug-24 06:33S 37°49' E 149°53'2016.6
2015-Aug-24 05:20S 37°36' E 150°11'1417.0
2015-Aug-24 04:30S 37°22' E 150°16'  
2015-Aug-21 20:27S 34°49' E 151°08'19916.7
2015-Aug-21 08:33S 37°56' E 149°43'1717.7
2015-Aug-21 07:34S 38°06' E 149°25'1817.5
2015-Aug-21 06:33S 38°17' E 149°07'1817.8
2015-Aug-21 05:33S 38°27' E 148°49'1717.5
2015-Aug-21 04:33S 38°38' E 148°31'1717.1
2015-Aug-21 03:32S 38°48' E 148°12'  
Track history (hours):
 
Tides and Currents Weather Stations Pressure Air Temp Water Temp Dewpoint Dewpoint Depression Visibility Wind Speed Wind Dir Waves Ship Positions

Sct Santiago

Last reported at 2015-Aug-28 23:33 UTC. Time now 2015-Aug-29 00:25 UTC.
Position S 35°04' E 138°09'.

Length 294 m; draft 9.7 m.

Type: Cargo ship. MMSI: 538002953.

Date/timePositionNaut miles runAvg speedWind from/ knotsBaromVisibWave heightAir tempDewpointWater temp
2015-Aug-28 23:33S 35°04' E 138°09'1212.4
2015-Aug-28 22:34S 34°53' E 138°17'9 0.4
2015-Aug-27 22:26S 35°02' E 138°15'27413.8
2015-Aug-27 02:33S 38°40' E 141°43'1615.5
2015-Aug-27 01:33S 38°44' E 142°02'1515.5
2015-Aug-27 00:33S 38°48' E 142°21'1615.6
2015-Aug-26 23:30S 38°52' E 142°42'1516.0
2015-Aug-26 22:32S 38°56' E 143°01'124 2.4
2015-Aug-24 19:33S 39°02' E 145°40'1616.4
2015-Aug-24 18:34S 39°10' E 145°57'1616.1
2015-Aug-24 17:34S 39°12' E 146°18'1716.8
2015-Aug-24 16:34S 39°07' E 146°39'1817.6
2015-Aug-24 15:34S 39°01' E 147°00'1717.2
2015-Aug-24 14:34S 38°56' E 147°21'6916.5
2015-Aug-24 10:24S 38°27' E 148°41'1517.6
2015-Aug-24 09:34S 38°19' E 148°57'2018.0
2015-Aug-24 08:27S 38°08' E 149°18'2117.6
2015-Aug-24 07:16S 37°56' E 149°40'1217.1
2015-Aug-24 06:33S 37°49' E 149°53'2016.6
2015-Aug-24 05:20S 37°36' E 150°11'1417.0
2015-Aug-24 04:30S 37°22' E 150°16'  
2015-Aug-21 20:27S 34°49' E 151°08'19916.7
2015-Aug-21 08:33S 37°56' E 149°43'1717.7
2015-Aug-21 07:34S 38°06' E 149°25'1817.5
2015-Aug-21 06:33S 38°17' E 149°07'1817.8
2015-Aug-21 05:33S 38°27' E 148°49'1717.5
2015-Aug-21 04:33S 38°38' E 148°31'1717.1
2015-Aug-21 03:32S 38°48' E 148°12'  

Dump ship's entire track history